Cornwall Bridge, Connecticut
Current Conditions -  °F | °C
As of 2:52 PM on Thursday 27 Nov 2014 (Local Time) from KOXC Reporting Station
Light Snow Light Snow  
Wind Chill: 27°   Ceiling: 1400
Heat Index: 32°   Visibility: 7mi
Dew Point: 25°   Wind: 5mph
Humidity: 75%   Direction: 360°N
Pressure: 29.96"   Gusts: NA
Location:  41.82°N, 73.37°W
Report Text: KOXC 271952Z 36004KT 7SM -SN SCT010 OVC014 00/M04 A2996
Loading
Personal Weather Stations






























Interactive Weather Map New forecast layout! Learn more

10-Day Weather Forecast

Advertisements
Track Severe Weather on mobile